createdAt,value
2018-06-05T00:00:58.676Z,79.94
2018-06-05T00:03:29.372Z,80.03
2018-06-05T00:06:01.259Z,80.24
2018-06-05T00:08:31.321Z,80.52
2018-06-05T00:11:01.763Z,81.01
2018-06-05T00:13:33.466Z,81.02
2018-06-05T00:16:03.755Z,80.81
2018-06-05T00:18:39.369Z,81.37
2018-06-05T00:21:09.336Z,81.18
2018-06-05T00:23:39.484Z,81.34
2018-06-05T00:26:09.279Z,81.79
2018-06-05T00:28:39.096Z,81.39
2018-06-05T00:31:08.848Z,81.55
2018-06-05T00:33:38.811Z,81.88
2018-06-05T00:36:08.628Z,82.52
2018-06-05T00:38:38.450Z,82.21
2018-06-05T00:41:08.229Z,82.39
2018-06-05T00:43:38.036Z,82.39
2018-06-05T00:46:07.840Z,83.10
2018-06-05T00:48:37.655Z,82.81
2018-06-05T00:51:24.067Z,82.92
2018-06-05T00:53:53.824Z,83.21
2018-06-05T00:56:23.589Z,83.40
2018-06-05T00:58:53.396Z,83.65
2018-06-05T01:01:23.235Z,84.33
2018-06-05T01:03:53.026Z,84.10
2018-06-05T01:06:22.834Z,84.71
2018-06-05T01:08:52.616Z,84.47
2018-06-05T01:11:22.459Z,84.75
2018-06-05T01:13:52.251Z,85.18
2018-06-05T01:16:22.037Z,85.11
2018-06-05T01:18:51.837Z,85.55
2018-06-05T01:21:21.594Z,85.84
2018-06-05T01:23:52.071Z,86.28
2018-06-05T01:26:21.895Z,85.99
2018-06-05T01:28:51.730Z,86.31
2018-06-05T01:31:21.503Z,86.34
2018-06-05T01:33:51.262Z,87.04
2018-06-05T01:36:21.153Z,87.02
2018-06-05T01:38:50.955Z,87.01
2018-06-05T01:41:20.816Z,87.72
2018-06-05T01:43:50.603Z,87.57
2018-06-05T01:46:20.433Z,87.78
2018-06-05T01:48:50.238Z,87.58
2018-06-05T01:51:20.091Z,88.22
2018-06-05T01:53:49.963Z,87.89
2018-06-05T01:56:19.774Z,87.86
2018-06-05T01:58:49.865Z,88.38
2018-06-05T02:01:19.723Z,88.14
2018-06-05T02:03:49.607Z,88.30
2018-06-05T02:06:19.382Z,88.53
2018-06-05T02:08:49.290Z,89.05
2018-06-05T02:11:19.108Z,89.36
2018-06-05T02:13:49.426Z,89.59
2018-06-05T02:16:19.247Z,89.56
2018-06-05T02:18:49.031Z,89.48
2018-06-05T02:21:18.809Z,90.64
2018-06-05T02:23:48.575Z,89.91
2018-06-05T02:26:18.712Z,90.44
2018-06-05T02:28:48.475Z,90.21
2018-06-05T02:31:18.216Z,90.92
2018-06-05T02:33:47.968Z,90.84
2018-06-05T02:36:17.770Z,90.70
2018-06-05T02:38:47.593Z,90.16
2018-06-05T02:41:17.399Z,90.72
2018-06-05T02:43:47.179Z,91.03
2018-06-05T02:46:16.988Z,91.46
2018-06-05T02:48:46.798Z,91.15
2018-06-05T02:51:16.570Z,91.56
2018-06-05T02:53:46.407Z,91.18
2018-06-05T02:56:16.170Z,91.40
2018-06-05T02:58:45.995Z,91.50
2018-06-05T03:01:15.750Z,91.82
2018-06-05T03:03:46.811Z,91.59
2018-06-05T03:06:16.655Z,91.09
2018-06-05T03:08:46.563Z,91.65
2018-06-05T03:11:17.355Z,91.52
2018-06-05T03:13:47.123Z,91.20
2018-06-05T03:16:16.905Z,91.15
2018-06-05T03:18:46.747Z,91.32
2018-06-05T03:21:16.914Z,91.02
2018-06-05T03:23:46.774Z,90.44
2018-06-05T03:26:16.532Z,90.50
2018-06-05T03:28:47.209Z,90.18
2018-06-05T03:31:16.979Z,90.56
2018-06-05T03:33:46.787Z,89.53
2018-06-05T03:36:16.605Z,89.22
2018-06-05T03:38:46.429Z,88.99
2018-06-05T03:41:16.367Z,88.81
2018-06-05T03:43:46.242Z,89.05
2018-06-05T03:46:16.037Z,88.49
2018-06-05T03:48:45.770Z,88.85
2018-06-05T03:51:15.638Z,88.33
2018-06-05T03:53:45.426Z,88.33
2018-06-05T03:56:16.799Z,88.55
2018-06-05T03:58:46.479Z,88.71
2018-06-05T04:01:17.103Z,88.36
2018-06-05T04:03:46.873Z,88.49
2018-06-05T04:06:16.705Z,87.70
2018-06-05T04:08:46.402Z,87.63
2018-06-05T04:11:16.234Z,87.17
2018-06-05T04:13:46.567Z,87.00
2018-06-05T04:16:17.066Z,86.85
2018-06-05T04:18:46.993Z,86.49
2018-06-05T04:21:16.776Z,85.69
2018-06-05T04:23:46.606Z,85.22
2018-06-05T04:26:16.426Z,84.65
2018-06-05T04:28:46.295Z,83.30
2018-06-05T04:31:16.039Z,83.05
2018-06-05T04:33:45.862Z,82.82
2018-06-05T04:36:15.639Z,81.59
2018-06-05T04:38:45.384Z,81.46
2018-06-05T04:41:15.241Z,81.24
2018-06-05T04:43:45.071Z,80.86
2018-06-05T04:46:14.873Z,80.41
2018-06-05T04:48:44.669Z,80.06
2018-06-05T04:51:14.385Z,79.00
2018-06-05T04:53:44.159Z,78.54
2018-06-05T04:56:13.982Z,78.28
2018-06-05T04:58:44.764Z,78.16
2018-06-05T05:01:14.546Z,77.88
2018-06-05T05:03:44.289Z,77.61
2018-06-05T05:06:18.712Z,78.43
2018-06-05T05:08:48.478Z,77.81
2018-06-05T05:11:19.386Z,76.71
2018-06-05T05:13:50.311Z,75.95
2018-06-05T05:16:21.314Z,75.79
2018-06-05T05:18:51.105Z,75.03
2018-06-05T05:21:20.866Z,74.58
2018-06-05T05:23:50.624Z,73.65
2018-06-05T05:26:21.449Z,73.03
2018-06-05T05:28:51.245Z,73.57
2018-06-05T05:31:20.970Z,73.10
2018-06-05T05:33:50.770Z,72.89
2018-06-05T05:36:20.510Z,72.11
2018-06-05T05:38:50.294Z,71.37
2018-06-05T05:41:19.999Z,71.27
2018-06-05T05:43:49.892Z,71.19
2018-06-05T05:46:19.620Z,70.89
2018-06-05T05:48:49.353Z,70.60
2018-06-05T05:51:19.152Z,70.23
2018-06-05T05:53:48.910Z,69.74
2018-06-05T05:56:18.858Z,68.46
2018-06-05T05:58:48.575Z,67.37
2018-06-05T06:01:18.400Z,66.90
2018-06-05T06:03:48.144Z,66.64
2018-06-05T06:06:17.892Z,67.28
2018-06-05T06:08:47.655Z,67.66
2018-06-05T06:11:17.498Z,67.93
2018-06-05T06:13:47.274Z,68.21
2018-06-05T06:16:17.041Z,67.92
2018-06-05T06:18:46.812Z,67.22
2018-06-05T06:21:16.626Z,66.97
2018-06-05T06:23:46.397Z,67.08
2018-06-05T06:26:16.206Z,66.39
2018-06-05T06:28:45.944Z,65.58
2018-06-05T06:31:15.666Z,65.93
2018-06-05T06:33:45.416Z,66.54
2018-06-05T06:36:15.185Z,66.54
2018-06-05T06:38:44.996Z,66.64
2018-06-05T06:41:14.784Z,67.02
2018-06-05T06:43:44.531Z,67.31
2018-06-05T06:46:14.265Z,67.87
2018-06-05T06:48:44.068Z,67.99
2018-06-05T06:51:13.789Z,68.35
2018-06-05T06:53:43.859Z,68.84
2018-06-05T06:56:13.601Z,68.70
2018-06-05T06:58:43.385Z,68.97
2018-06-05T07:01:13.096Z,68.62
2018-06-05T07:03:42.797Z,69.18
2018-06-05T07:06:12.619Z,69.03
2018-06-05T07:08:42.487Z,68.72
2018-06-05T07:11:12.325Z,68.67
2018-06-05T07:13:42.127Z,69.06
2018-06-05T07:16:11.936Z,68.91
2018-06-05T07:18:41.821Z,68.67
2018-06-05T07:21:11.565Z,69.05
2018-06-05T07:23:41.341Z,69.56
2018-06-05T07:26:11.210Z,69.26
2018-06-05T07:28:40.969Z,69.59
2018-06-05T07:31:10.756Z,68.42
2018-06-05T07:33:40.483Z,69.26
2018-06-05T07:36:10.288Z,68.87
2018-06-05T07:38:40.063Z,69.20
2018-06-05T07:41:09.852Z,68.30
2018-06-05T07:43:39.617Z,68.93
2018-06-05T07:46:09.472Z,68.61
2018-06-05T07:48:39.302Z,68.13
2018-06-05T07:51:09.069Z,69.18
2018-06-05T07:53:38.796Z,68.51
2018-06-05T07:56:08.593Z,68.45
2018-06-05T07:58:38.345Z,67.86
2018-06-05T08:01:08.223Z,67.66
2018-06-05T08:03:38.065Z,67.37
2018-06-05T08:06:07.840Z,66.90
2018-06-05T08:08:37.593Z,66.24
2018-06-05T08:11:07.353Z,64.94
2018-06-05T08:13:37.112Z,64.64
2018-06-05T08:16:07.076Z,64.33
2018-06-05T08:18:36.832Z,63.22
2018-06-05T08:21:06.981Z,61.80
2018-06-05T08:23:36.747Z,59.80
2018-06-05T08:26:06.581Z,59.18
2018-06-05T08:28:36.309Z,59.79
2018-06-05T08:31:06.125Z,59.76
2018-06-05T08:33:35.897Z,58.53
2018-06-05T08:36:05.689Z,57.88
2018-06-05T08:38:35.460Z,56.56
2018-06-05T08:41:05.246Z,55.59
2018-06-05T08:43:34.976Z,56.80
2018-06-05T08:46:04.717Z,56.79
2018-06-05T08:48:34.491Z,57.45
2018-06-05T08:51:04.218Z,55.30
2018-06-05T08:53:34.004Z,55.02
2018-06-05T08:56:03.750Z,55.46
2018-06-05T08:58:33.513Z,55.09
2018-06-05T09:01:03.293Z,55.71
2018-06-05T09:03:33.069Z,56.19
2018-06-05T09:06:02.781Z,56.63
2018-06-05T09:08:32.561Z,56.10
2018-06-05T09:11:02.357Z,55.65
2018-06-05T09:13:32.188Z,57.06
2018-06-05T09:16:01.961Z,56.25
2018-06-05T09:18:31.741Z,57.04
2018-06-05T09:21:01.545Z,56.96
2018-06-05T09:23:31.300Z,57.49
2018-06-05T09:26:01.069Z,59.33
2018-06-05T09:28:30.830Z,59.22
2018-06-05T09:31:00.745Z,58.48
2018-06-05T09:33:30.484Z,58.69
2018-06-05T09:36:00.293Z,57.67
2018-06-05T09:38:30.090Z,57.47
2018-06-05T09:40:59.885Z,56.98
2018-06-05T09:43:29.670Z,56.49
2018-06-05T09:45:59.407Z,55.53
2018-06-05T09:48:29.192Z,55.40
2018-06-05T09:50:58.962Z,55.15
2018-06-05T09:53:28.763Z,54.81
2018-06-05T09:55:58.506Z,55.54
2018-06-05T09:58:28.368Z,55.90
2018-06-05T10:00:58.088Z,56.05
2018-06-05T10:03:27.849Z,55.25
2018-06-05T10:05:57.652Z,55.28
2018-06-05T10:08:27.361Z,55.80
2018-06-05T10:10:57.138Z,55.38
2018-06-05T10:13:26.879Z,55.27
2018-06-05T10:15:56.636Z,53.65
2018-06-05T10:18:26.416Z,53.67
2018-06-05T10:20:56.138Z,53.98
2018-06-05T10:23:25.936Z,53.91
2018-06-05T10:25:55.682Z,53.91
2018-06-05T10:28:25.425Z,53.54
2018-06-05T10:30:55.120Z,53.23
2018-06-05T10:33:24.889Z,52.35
2018-06-05T10:35:54.596Z,52.49
2018-06-05T10:38:24.366Z,52.57
2018-06-05T10:40:54.076Z,51.34
2018-06-05T10:43:23.879Z,50.52
2018-06-05T10:45:53.676Z,49.54
2018-06-05T10:48:23.896Z,48.65
2018-06-05T10:50:53.680Z,48.57
2018-06-05T10:53:23.396Z,48.40
2018-06-05T10:55:53.132Z,48.26
2018-06-05T10:58:22.924Z,47.79
2018-06-05T11:00:52.688Z,46.52
2018-06-05T11:03:22.448Z,46.40
2018-06-05T11:05:52.264Z,45.63
2018-06-05T11:08:22.022Z,45.34
2018-06-05T11:10:51.804Z,44.13
2018-06-05T11:13:21.497Z,43.13
2018-06-05T11:15:51.270Z,41.76
2018-06-05T11:18:21.047Z,41.80
2018-06-05T11:20:50.754Z,42.37
2018-06-05T11:23:20.681Z,41.45
2018-06-05T11:25:50.480Z,41.89
2018-06-05T11:28:20.224Z,42.06
2018-06-05T11:30:50.067Z,41.66
2018-06-05T11:33:19.847Z,43.77
2018-06-05T11:35:49.598Z,44.26
2018-06-05T11:38:19.418Z,43.33
2018-06-05T11:40:49.146Z,42.43
2018-06-05T11:43:18.940Z,41.69
2018-06-05T11:45:48.708Z,41.84
2018-06-05T11:48:18.484Z,41.04
2018-06-05T11:50:48.272Z,40.14
2018-06-05T11:53:18.062Z,41.81
2018-06-05T11:55:47.837Z,42.97
2018-06-05T11:58:17.641Z,43.08
2018-06-05T12:00:47.455Z,41.88
2018-06-05T12:03:17.256Z,42.00
2018-06-05T12:05:47.019Z,42.38
2018-06-05T12:08:16.801Z,42.84
2018-06-05T12:10:46.506Z,43.63
2018-06-05T12:13:16.334Z,43.24
2018-06-05T12:15:46.049Z,43.13
2018-06-05T12:18:15.864Z,42.68
2018-06-05T12:20:45.611Z,42.58
2018-06-05T12:23:15.419Z,42.13
2018-06-05T12:25:45.219Z,41.72
2018-06-05T12:28:15.027Z,41.64
2018-06-05T12:30:44.786Z,41.51
2018-06-05T12:33:14.638Z,40.65
2018-06-05T12:35:44.443Z,40.12
2018-06-05T12:38:14.187Z,40.41
2018-06-05T12:40:44.055Z,41.21
2018-06-05T12:43:13.787Z,42.79
2018-06-05T12:45:43.603Z,43.27
2018-06-05T12:48:13.480Z,43.98
2018-06-05T12:50:43.272Z,43.95
2018-06-05T12:53:13.005Z,42.99
2018-06-05T12:55:42.743Z,42.84
2018-06-05T12:58:12.477Z,43.82
2018-06-05T13:00:42.214Z,43.61
2018-06-05T13:03:12.098Z,42.80
2018-06-05T13:05:41.907Z,42.89
2018-06-05T13:08:11.745Z,42.81
2018-06-05T13:10:41.934Z,43.92
2018-06-05T13:13:11.675Z,45.41
2018-06-05T13:15:41.466Z,45.77
2018-06-05T13:18:11.278Z,44.25
2018-06-05T13:20:41.153Z,43.64
2018-06-05T13:23:10.983Z,42.50
2018-06-05T13:25:40.729Z,44.03
2018-06-05T13:28:10.474Z,44.53
2018-06-05T13:30:40.296Z,45.01
2018-06-05T13:33:09.990Z,43.55
2018-06-05T13:35:39.732Z,42.24
2018-06-05T13:38:09.573Z,40.55
2018-06-05T13:40:39.376Z,40.87
2018-06-05T13:43:09.136Z,42.12
2018-06-05T13:45:38.910Z,42.46
2018-06-05T13:48:08.688Z,43.48
2018-06-05T13:50:39.155Z,45.38
2018-06-05T13:53:08.932Z,46.27
2018-06-05T13:55:38.683Z,48.34
2018-06-05T13:58:08.622Z,49.67
2018-06-05T14:00:38.436Z,51.25
2018-06-05T14:03:08.262Z,51.02
2018-06-05T14:05:37.992Z,49.70
2018-06-05T14:08:08.728Z,49.89
2018-06-05T14:10:38.732Z,49.66
2018-06-05T14:13:08.457Z,48.39
2018-06-05T14:15:38.231Z,48.41
2018-06-05T14:18:07.976Z,47.20
2018-06-05T14:20:38.442Z,46.84
2018-06-05T14:23:08.220Z,46.24
2018-06-05T14:25:37.966Z,46.49
2018-06-05T14:28:07.752Z,46.36
2018-06-05T14:30:37.470Z,46.89
2018-06-05T14:33:07.279Z,46.10
2018-06-05T14:35:36.999Z,46.09
2018-06-05T14:38:06.794Z,46.72
2018-06-05T14:40:36.500Z,46.79
2018-06-05T14:43:06.386Z,47.80
2018-06-05T14:45:36.177Z,46.86
2018-06-05T14:48:05.934Z,47.75
2018-06-05T14:50:35.730Z,47.79
2018-06-05T14:53:05.514Z,48.59
2018-06-05T14:55:35.402Z,49.53
2018-06-05T14:58:05.467Z,48.56
2018-06-05T15:00:35.784Z,48.42
2018-06-05T15:03:05.759Z,46.83
2018-06-05T15:05:35.536Z,46.83
2018-06-05T15:08:05.567Z,48.21
2018-06-05T15:10:35.408Z,47.10
2018-06-05T15:13:05.238Z,47.18
2018-06-05T15:15:35.066Z,47.69
2018-06-05T15:18:04.911Z,47.96
2018-06-05T15:20:34.789Z,48.33
2018-06-05T15:23:05.302Z,48.16
2018-06-05T15:25:35.131Z,48.11
2018-06-05T15:28:04.983Z,47.53
2018-06-05T15:30:34.842Z,47.72
2018-06-05T15:33:04.647Z,47.80
2018-06-05T15:35:34.441Z,48.25
2018-06-05T15:38:04.241Z,47.65
2018-06-05T15:40:34.052Z,47.63
2018-06-05T15:43:03.818Z,47.94
2018-06-05T15:45:33.532Z,47.27
2018-06-05T15:48:03.301Z,46.76
2018-06-05T15:50:33.158Z,47.05
2018-06-05T15:53:02.928Z,46.34
2018-06-05T15:55:32.775Z,46.53
2018-06-05T15:58:02.670Z,46.29
2018-06-05T16:00:32.465Z,45.78
2018-06-05T16:03:02.210Z,46.10
2018-06-05T16:05:32.083Z,46.91
2018-06-05T16:08:01.827Z,47.35
2018-06-05T16:10:31.585Z,47.18
2018-06-05T16:13:01.356Z,46.54
2018-06-05T16:15:31.146Z,46.09
2018-06-05T16:18:00.970Z,46.04
2018-06-05T16:20:31.599Z,45.38
2018-06-05T16:23:01.407Z,45.12
2018-06-05T16:25:31.263Z,45.10
2018-06-05T16:28:01.086Z,45.12
2018-06-05T16:30:30.857Z,44.89
2018-06-05T16:33:00.641Z,44.59
2018-06-05T16:35:30.413Z,43.86
2018-06-05T16:38:00.175Z,45.02
2018-06-05T16:40:30.533Z,44.83
2018-06-05T16:43:00.397Z,43.99
2018-06-05T16:45:30.208Z,44.34
2018-06-05T16:48:00.081Z,43.36
2018-06-05T16:50:29.929Z,43.94
2018-06-05T16:52:59.804Z,43.56
2018-06-05T16:55:29.574Z,43.59
2018-06-05T16:57:59.365Z,45.55
2018-06-05T17:00:29.133Z,44.90
2018-06-05T17:02:58.927Z,46.03
2018-06-05T17:05:28.705Z,46.13
2018-06-05T17:07:58.637Z,46.24
2018-06-05T17:10:28.733Z,46.78
2018-06-05T17:12:59.283Z,47.52
2018-06-05T17:15:29.099Z,48.30
2018-06-05T17:17:59.569Z,49.24
2018-06-05T17:20:29.354Z,49.65
2018-06-05T17:22:59.141Z,49.69
2018-06-05T17:25:28.919Z,49.97
2018-06-05T17:27:58.689Z,49.78
2018-06-05T17:30:28.458Z,49.05
2018-06-05T17:32:58.310Z,49.01
2018-06-05T17:35:28.177Z,47.59
2018-06-05T17:37:59.175Z,48.09
2018-06-05T17:40:29.332Z,49.97
2018-06-05T17:42:59.175Z,47.01
2018-06-05T17:45:28.996Z,47.33
2018-06-05T17:47:58.884Z,46.79
2018-06-05T17:50:29.621Z,49.24
2018-06-05T17:52:59.556Z,49.40
2018-06-05T17:55:29.288Z,47.28
2018-06-05T17:57:59.184Z,46.42
2018-06-05T18:00:29.084Z,44.78
2018-06-05T18:02:59.407Z,46.19
2018-06-05T18:05:29.874Z,47.50
2018-06-05T18:07:59.644Z,48.59
2018-06-05T18:10:30.552Z,49.21
2018-06-05T18:13:02.991Z,50.77
2018-06-05T18:15:32.920Z,50.83
2018-06-05T18:18:02.760Z,51.86
2018-06-05T18:20:32.570Z,52.35
2018-06-05T18:23:02.519Z,52.52
2018-06-05T18:25:32.443Z,53.35
2018-06-05T18:28:02.313Z,53.43
2018-06-05T18:30:33.577Z,54.14
2018-06-05T18:33:03.657Z,54.99
2018-06-05T18:35:35.839Z,55.38
2018-06-05T18:38:05.904Z,56.09
2018-06-05T18:40:35.684Z,56.14
2018-06-05T18:43:06.437Z,56.92
2018-06-05T18:45:36.236Z,56.93
2018-06-05T18:48:06.179Z,58.01
2018-06-05T18:50:37.593Z,58.66
2018-06-05T18:53:07.383Z,59.08
2018-06-05T18:55:38.525Z,59.48
2018-06-05T18:58:08.340Z,60.25
2018-06-05T19:00:38.196Z,60.48
2018-06-05T19:03:09.595Z,61.41
2018-06-05T19:05:39.668Z,60.97
2018-06-05T19:08:09.638Z,62.12
2018-06-05T19:10:40.080Z,62.35
2018-06-05T19:13:11.204Z,62.29
2018-06-05T19:15:44.247Z,63.17
2018-06-05T19:18:14.655Z,64.10
2018-06-05T19:20:45.238Z,64.99
2018-06-05T19:23:16.062Z,64.69
2018-06-05T19:25:46.399Z,65.23
2018-06-05T19:28:17.009Z,65.35
2018-06-05T19:30:48.356Z,66.31
2018-06-05T19:33:18.823Z,66.69
2018-06-05T19:35:50.632Z,66.76
2018-06-05T19:38:21.536Z,66.86
2018-06-05T19:40:51.756Z,66.80
2018-06-05T19:43:22.732Z,66.41
2018-06-05T19:45:53.563Z,66.62
2018-06-05T19:48:25.255Z,66.68
2018-06-05T19:50:57.321Z,67.25
2018-06-05T19:53:28.192Z,66.90
2018-06-05T19:55:58.675Z,66.98
2018-06-05T19:58:29.385Z,67.70
2018-06-05T20:00:59.276Z,67.70
2018-06-05T20:03:29.007Z,68.75
2018-06-05T20:05:58.855Z,68.67
2018-06-05T20:08:29.933Z,69.64
2018-06-05T20:11:00.837Z,69.70
2018-06-05T20:13:31.055Z,70.45
2018-06-05T20:16:02.594Z,70.83
2018-06-05T20:18:32.665Z,71.57
2018-06-05T20:21:03.571Z,71.73
2018-06-05T20:23:34.476Z,72.00
2018-06-05T20:26:04.351Z,72.64
2018-06-05T20:28:34.560Z,74.48
2018-06-05T20:31:09.899Z,73.45
2018-06-05T20:33:40.315Z,70.52
2018-06-05T20:36:10.427Z,67.46
2018-06-05T20:38:41.394Z,65.14
2018-06-05T20:41:11.248Z,62.71
2018-06-05T20:43:41.183Z,61.68
2018-06-05T20:46:11.106Z,60.23
2018-06-05T20:48:40.959Z,59.24
2018-06-05T20:51:11.019Z,58.77
2018-06-05T20:53:42.175Z,58.17
2018-06-05T20:56:12.170Z,56.71
2018-06-05T20:58:42.147Z,55.57
2018-06-05T21:01:12.235Z,55.00
2018-06-05T21:03:42.603Z,54.19
2018-06-05T21:06:12.349Z,53.00
2018-06-05T21:08:43.247Z,52.88
2018-06-05T21:11:12.978Z,52.50
2018-06-05T21:13:42.754Z,52.11
2018-06-05T21:16:12.506Z,52.23
2018-06-05T21:18:42.299Z,51.03
2018-06-05T21:21:12.027Z,50.66
2018-06-05T21:23:42.037Z,50.08
2018-06-05T21:26:11.772Z,49.74
2018-06-05T21:28:41.597Z,48.61
2018-06-05T21:31:11.382Z,49.00
2018-06-05T21:33:41.087Z,48.49
2018-06-05T21:36:10.930Z,48.94
2018-06-05T21:38:40.675Z,48.88
2018-06-05T21:41:10.604Z,48.43
2018-06-05T21:43:40.443Z,49.21
2018-06-05T21:46:10.425Z,48.84
2018-06-05T21:48:41.053Z,49.09
2018-06-05T21:51:11.556Z,49.07
2018-06-05T21:53:41.483Z,49.88
2018-06-05T21:56:12.459Z,50.19
2018-06-05T21:58:42.175Z,50.56
2018-06-05T22:01:13.050Z,50.57
2018-06-05T22:03:43.198Z,50.02
2018-06-05T22:06:13.635Z,51.05
2018-06-05T22:08:46.010Z,50.27
2018-06-05T22:11:16.861Z,50.25
2018-06-05T22:13:46.648Z,50.38
2018-06-05T22:16:18.357Z,49.86
2018-06-05T22:18:48.113Z,50.96
2018-06-05T22:21:17.808Z,50.63
2018-06-05T22:23:49.315Z,51.05
2018-06-05T22:26:21.647Z,51.25
2018-06-05T22:28:53.366Z,51.83
2018-06-05T22:31:25.389Z,51.54
2018-06-05T22:33:56.654Z,52.12
2018-06-05T22:36:28.170Z,52.11
2018-06-05T22:38:57.954Z,52.24
2018-06-05T22:41:27.726Z,52.95
2018-06-05T22:43:58.863Z,52.68
2018-06-05T22:46:32.171Z,53.27
2018-06-05T22:49:03.842Z,52.60
2018-06-05T22:51:36.746Z,52.87
2018-06-05T22:54:09.410Z,52.80
2018-06-05T22:56:41.458Z,53.23
2018-06-05T22:59:12.477Z,52.95
2018-06-05T23:01:46.466Z,52.76
2018-06-05T23:04:16.286Z,53.00
2018-06-05T23:06:45.997Z,52.68
2018-06-05T23:09:15.720Z,52.19
2018-06-05T23:11:45.530Z,53.25
2018-06-05T23:14:15.239Z,53.01
2018-06-05T23:16:45.050Z,52.72
2018-06-05T23:19:14.789Z,52.66
2018-06-05T23:21:44.504Z,52.74
2018-06-05T23:24:14.254Z,53.30
2018-06-05T23:26:44.072Z,53.20
2018-06-05T23:29:13.853Z,53.49
2018-06-05T23:31:43.605Z,54.24
2018-06-05T23:34:13.328Z,54.17
2018-06-05T23:36:43.056Z,54.36
2018-06-05T23:39:12.786Z,54.10
2018-06-05T23:41:42.607Z,54.89
2018-06-05T23:44:12.329Z,54.57
2018-06-05T23:46:42.122Z,54.50
2018-06-05T23:49:11.925Z,54.75
2018-06-05T23:51:41.713Z,54.66
2018-06-05T23:54:11.421Z,54.57
2018-06-05T23:56:41.193Z,55.15
2018-06-05T23:59:10.913Z,53.97
